Aviation Digital Data Service (ADDS)

Output produced by METARs form (1336 UTC 19 April 2018)
found at http://aviationweather.gov/adds/metars/
 
KFNT 191120Z 1912/2012 32010KT P6SM SCT045 
     FM191400 34012G21KT P6SM SCT040 
     FM191700 32014G22KT P6SM SCT035 
     FM200000 33008KT P6SM SKC